createdAt,value
2022-10-25T00:04:02.424Z,25.65
2022-10-25T00:09:04.839Z,18.45
2022-10-25T00:14:20.792Z,18.88
2022-10-25T00:19:27.357Z,16.63
2022-10-25T00:24:29.139Z,20.15
2022-10-25T00:29:39.118Z,20.92
2022-10-25T00:34:46.683Z,18.93
2022-10-25T00:39:53.330Z,18.33
2022-10-25T00:45:04.584Z,20.95
2022-10-25T00:50:20.395Z,24.63
2022-10-25T00:55:24.396Z,24.55
2022-10-25T01:00:30.843Z,20.63
2022-10-25T01:05:42.404Z,20.63
2022-10-25T01:11:02.486Z,24.92
2022-10-25T01:16:13.289Z,22.10
2022-10-25T01:21:36.248Z,24.48
2022-10-25T01:26:49.314Z,22.58
2022-10-25T01:31:53.842Z,30.40
2022-10-25T01:37:18.323Z,29.83
2022-10-25T01:42:36.024Z,32.70
2022-10-25T01:47:45.419Z,28.20
2022-10-25T01:52:49.533Z,24.20
2022-10-25T01:57:59.425Z,35.38
2022-10-25T02:03:13.339Z,25.52
2022-10-25T02:08:21.365Z,25.02
2022-10-25T02:13:43.838Z,32.03
2022-10-25T02:18:52.121Z,33.70
2022-10-25T02:24:13.595Z,33.72
2022-10-25T02:29:18.421Z,33.33
2022-10-25T02:34:22.788Z,28.13
2022-10-25T02:39:31.600Z,35.92
2022-10-25T02:44:34.517Z,37.47
2022-10-25T02:49:36.370Z,41.72
2022-10-25T02:54:39.194Z,39.55
2022-10-25T02:59:42.254Z,33.70
2022-10-25T03:04:48.515Z,36.90
2022-10-25T03:09:50.271Z,39.65
2022-10-25T03:14:54.541Z,46.47
2022-10-25T03:19:58.384Z,37.58
2022-10-25T03:25:05.190Z,38.58
2022-10-25T03:30:07.727Z,45.53
2022-10-25T03:35:10.082Z,52.05
2022-10-25T03:40:15.345Z,53.25
2022-10-25T03:45:20.103Z,49.13
2022-10-25T03:50:23.527Z,45.05
2022-10-25T03:55:27.437Z,43.78
2022-10-25T04:00:32.295Z,44.28
2022-10-25T04:05:38.722Z,45.33
2022-10-25T04:10:40.565Z,43.03
2022-10-25T04:15:44.567Z,39.72
2022-10-25T04:20:48.873Z,41.42
2022-10-25T04:25:50.664Z,39.53
2022-10-25T04:30:52.584Z,38.85
2022-10-25T04:36:00.031Z,33.88
2022-10-25T04:41:04.496Z,35.58
2022-10-25T04:46:09.776Z,36.95
2022-10-25T04:51:12.154Z,26.98
2022-10-25T04:56:15.295Z,31.42
2022-10-25T05:01:20.483Z,32.63
2022-10-25T05:06:26.715Z,27.80
2022-10-25T05:11:30.798Z,28.50
2022-10-25T05:16:35.506Z,34.28
2022-10-25T05:21:39.047Z,34.83
2022-10-25T05:26:40.842Z,29.38
2022-10-25T05:31:43.172Z,24.38
2022-10-25T05:36:47.719Z,31.05
2022-10-25T05:41:50.813Z,28.45
2022-10-25T05:46:52.643Z,27.45
2022-10-25T05:51:57.449Z,32.65
2022-10-25T05:56:59.217Z,28.20
2022-10-25T06:02:04.627Z,27.50
2022-10-25T06:07:09.368Z,29.83
2022-10-25T06:12:12.200Z,29.70
2022-10-25T06:17:22.473Z,31.02
2022-10-25T06:22:29.678Z,24.77
2022-10-25T06:27:37.834Z,21.20
2022-10-25T06:32:39.748Z,26.88
2022-10-25T06:37:43.755Z,25.45
2022-10-25T06:42:48.024Z,25.65
2022-10-25T06:47:55.318Z,31.70
2022-10-25T06:53:01.256Z,30.65
2022-10-25T06:58:05.775Z,27.92
2022-10-25T07:03:07.564Z,27.25
2022-10-25T07:08:12.740Z,28.17
2022-10-25T07:13:17.164Z,25.67
2022-10-25T07:18:21.105Z,23.90
2022-10-25T07:23:31.796Z,30.13
2022-10-25T07:28:35.723Z,22.63
2022-10-25T07:33:40.346Z,29.25
2022-10-25T07:38:47.459Z,26.92
2022-10-25T07:43:51.736Z,27.80
2022-10-25T07:48:56.023Z,26.55
2022-10-25T07:54:02.675Z,26.88
2022-10-25T07:59:04.531Z,29.65
2022-10-25T08:04:08.635Z,28.75
2022-10-25T08:09:20.288Z,26.67
2022-10-25T08:14:30.525Z,33.83
2022-10-25T08:19:32.600Z,31.60
2022-10-25T08:24:36.084Z,35.20
2022-10-25T08:29:43.531Z,30.35
2022-10-25T08:34:47.650Z,26.30
2022-10-25T08:39:53.502Z,26.13
2022-10-25T08:45:10.703Z,28.80
2022-10-25T08:50:20.440Z,21.40
2022-10-25T08:55:44.556Z,24.38
2022-10-25T09:00:50.430Z,22.27
2022-10-25T09:06:07.084Z,17.38
2022-10-25T09:11:25.446Z,19.55
2022-10-25T09:16:57.631Z,17.58
2022-10-25T09:22:22.073Z,19.65
2022-10-25T09:27:30.568Z,14.90
2022-10-25T09:32:37.993Z,15.50
2022-10-25T09:37:49.054Z,18.90
2022-10-25T09:42:59.102Z,27.25
2022-10-25T09:48:08.175Z,19.40
2022-10-25T09:53:21.697Z,17.92
2022-10-25T09:58:41.692Z,15.55
2022-10-25T10:03:48.936Z,17.33
2022-10-25T10:08:58.681Z,19.35
2022-10-25T10:14:06.105Z,18.50
2022-10-25T10:19:21.266Z,16.90
2022-10-25T10:24:34.787Z,21.05
2022-10-25T10:30:02.207Z,16.95
2022-10-25T10:35:07.181Z,17.30
2022-10-25T10:40:09.071Z,18.20
2022-10-25T10:45:13.384Z,14.68
2022-10-25T10:50:21.342Z,14.05
2022-10-25T10:55:40.043Z,18.40
2022-10-25T11:00:52.800Z,20.58
2022-10-25T11:05:54.755Z,16.00
2022-10-25T11:11:15.936Z,18.25
2022-10-25T11:16:24.310Z,16.35
2022-10-25T11:21:31.483Z,17.30
2022-10-25T11:26:50.735Z,14.52
2022-10-25T11:31:59.611Z,18.45
2022-10-25T11:37:22.500Z,20.60
2022-10-25T11:42:39.908Z,14.98
2022-10-25T11:48:10.799Z,12.32
2022-10-25T11:53:15.616Z,12.68
2022-10-25T11:58:23.597Z,14.15
2022-10-25T12:04:02.715Z,12.15
2022-10-25T12:09:55.114Z,11.52
2022-10-25T12:15:01.536Z,13.13
2022-10-25T12:20:07.852Z,11.05
2022-10-25T12:25:26.259Z,11.35
2022-10-25T12:30:30.941Z,10.32
2022-10-25T12:36:24.019Z,11.18
2022-10-25T12:41:32.799Z,15.38
2022-10-25T12:46:40.698Z,10.88
2022-10-25T12:52:17.627Z,8.75
2022-10-25T12:57:24.300Z,11.35
2022-10-25T13:02:55.616Z,16.20
2022-10-25T13:07:58.946Z,13.27
2022-10-25T13:13:08.650Z,10.65
2022-10-25T13:18:34.673Z,8.73
2022-10-25T13:23:42.645Z,10.90
2022-10-25T13:28:45.950Z,9.65
2022-10-25T13:34:12.313Z,6.65
2022-10-25T13:39:25.676Z,12.77
2022-10-25T13:44:38.532Z,11.00
2022-10-25T13:49:44.927Z,13.10
2022-10-25T13:54:52.602Z,12.93
2022-10-25T13:59:54.481Z,9.32
2022-10-25T14:04:58.616Z,8.30
2022-10-25T14:10:00.924Z,11.18
2022-10-25T14:15:16.954Z,8.52
2022-10-25T14:20:28.369Z,12.98
2022-10-25T14:25:35.858Z,9.88
2022-10-25T14:30:49.458Z,9.05
2022-10-25T14:35:54.931Z,9.93
2022-10-25T14:41:01.517Z,7.43
2022-10-25T14:46:12.456Z,8.98
2022-10-25T14:51:38.177Z,8.77
2022-10-25T14:56:46.036Z,7.88
2022-10-25T15:01:56.771Z,9.73
2022-10-25T15:07:07.144Z,10.07
2022-10-25T15:12:29.341Z,8.02
2022-10-25T15:17:50.283Z,12.15
2022-10-25T15:23:01.831Z,10.02
2022-10-25T15:28:14.794Z,7.55
2022-10-25T15:33:28.352Z,9.75
2022-10-25T15:39:05.549Z,11.10
2022-10-25T15:43:59.706Z,7.45
2022-10-25T15:49:05.422Z,9.05
2022-10-25T15:54:19.334Z,7.18
2022-10-25T15:59:21.361Z,9.88
2022-10-25T16:04:25.687Z,6.70
2022-10-25T16:09:27.447Z,7.22
2022-10-25T16:14:34.137Z,9.55
2022-10-25T16:19:37.237Z,9.10
2022-10-25T16:24:41.627Z,12.90
2022-10-25T16:29:51.169Z,9.43
2022-10-25T16:34:57.821Z,11.32
2022-10-25T16:40:00.426Z,13.27
2022-10-25T16:45:23.244Z,10.80
2022-10-25T16:50:26.803Z,13.48
2022-10-25T16:55:31.910Z,11.95
2022-10-25T17:00:36.595Z,14.02
2022-10-25T17:05:40.068Z,12.85
2022-10-25T17:10:43.846Z,12.02
2022-10-25T17:15:47.891Z,12.43
2022-10-25T17:20:57.708Z,13.63
2022-10-25T17:26:00.844Z,13.95
2022-10-25T17:31:10.105Z,11.65
2022-10-25T17:36:18.994Z,13.70
2022-10-25T17:41:21.335Z,15.88
2022-10-25T17:46:28.908Z,12.02
2022-10-25T17:51:32.360Z,10.98
2022-10-25T17:56:37.168Z,14.07
2022-10-25T18:01:44.955Z,18.23
2022-10-25T18:06:47.457Z,15.45
2022-10-25T18:11:51.828Z,12.63
2022-10-25T18:16:53.732Z,14.25
2022-10-25T18:22:00.466Z,14.95
2022-10-25T18:27:09.488Z,13.93
2022-10-25T18:32:32.212Z,17.77
2022-10-25T18:37:40.093Z,13.18
2022-10-25T18:42:42.197Z,22.40
2022-10-25T18:47:54.002Z,13.52
2022-10-25T18:52:55.919Z,18.83
2022-10-25T18:58:03.381Z,20.73
2022-10-25T19:03:10.071Z,25.85
2022-10-25T19:08:18.339Z,21.58
2022-10-25T19:13:28.872Z,21.63
2022-10-25T19:18:32.303Z,23.98
2022-10-25T19:23:37.684Z,18.83
2022-10-25T19:28:42.619Z,15.63
2022-10-25T19:33:46.084Z,20.67
2022-10-25T19:51:10.362Z,18.73
2022-10-25T19:56:20.569Z,21.10
2022-10-25T20:01:27.437Z,19.17
2022-10-25T20:06:42.841Z,20.73
2022-10-25T20:11:56.641Z,19.13
2022-10-25T20:16:58.922Z,20.70
2022-10-25T20:22:20.478Z,20.25
2022-10-25T20:27:24.999Z,23.23
2022-10-25T20:32:32.955Z,22.20
2022-10-25T20:37:34.941Z,19.90
2022-10-25T20:43:00.100Z,20.83
2022-10-25T20:48:03.199Z,21.88
2022-10-25T20:53:10.122Z,22.67
2022-10-25T20:58:19.134Z,19.20
2022-10-25T21:03:21.767Z,22.38
2022-10-25T21:08:24.195Z,22.13
2022-10-25T21:13:27.728Z,26.00
2022-10-25T21:18:32.226Z,26.20
2022-10-25T21:23:34.362Z,21.85
2022-10-25T21:28:38.813Z,23.88
2022-10-25T21:33:49.907Z,18.60
2022-10-25T21:38:56.209Z,23.50
2022-10-25T21:44:02.450Z,21.70
2022-10-25T21:49:04.813Z,21.48
2022-10-25T21:54:08.984Z,22.95
2022-10-25T21:59:15.558Z,26.02
2022-10-25T22:04:17.465Z,21.67
2022-10-25T22:09:22.698Z,26.73
2022-10-25T22:14:29.015Z,28.23
2022-10-25T22:19:30.845Z,22.63
2022-10-25T22:24:35.151Z,21.65
2022-10-25T22:29:36.971Z,23.60
2022-10-25T22:34:39.707Z,18.65
2022-10-25T22:39:41.575Z,25.27
2022-10-25T22:44:43.391Z,28.90
2022-10-25T22:49:45.224Z,31.30
2022-10-25T22:54:47.379Z,26.60
2022-10-25T22:59:49.283Z,29.42
2022-10-25T23:04:51.253Z,25.90
2022-10-25T23:09:58.018Z,26.08
2022-10-25T23:15:01.640Z,23.60
2022-10-25T23:20:03.961Z,21.40
2022-10-25T23:25:08.605Z,21.55
2022-10-25T23:30:13.383Z,24.13
2022-10-25T23:35:15.258Z,24.10
2022-10-25T23:40:19.745Z,22.33
2022-10-25T23:45:28.261Z,17.83
2022-10-25T23:50:30.110Z,23.63
2022-10-25T23:55:38.909Z,18.40
